Jadranovo, Croatia

12:53 PM CET on February 10, 2016 (GMT +0100)
Ruzic selo | | Change Station
CLOSE
Current Station
Personal Weather Station
Location: Hreljin, PRIMORJE-GORSKI KOTAR COUNTY
Elevation: 1175 ft
Nearby Weather Stations

Elev 1175 ft 45.28 °N, 14.61 °E | Updated 19 seconds ago

Mostly Cloudy
Mostly Cloudy
43.9 °F
Feels Like 40 °F
N
7.2
Wind Variable Wind from SE
Gusts 7.2 mph

Today
High -- | Low -- °F
--% Chance of Precip.
Yesterday
High -- | Low -- °F
Precip. -- in
Pressure 29.36 in
Visibility 6.2 miles
Clouds Few 2000 ft
Mostly Cloudy 3700 ft
Windchill 40 °F
Dew Point 34 °F
Humidity 67%
Rainfall 1.27 in
Snow Depth Not available.
7:11 AM 5:20 PM
Waxing Crescent, 5% visible
METAR LDRI 101130Z 23010KT 180V270 9999 FEW020 BKN037 10/08 Q0994
Pressure 29.36 in
Visibility 6.2 miles
Clouds Few 2000 ft
Mostly Cloudy 3700 ft
Windchill 40 °F
Dew Point 34 °F
Humidity 67%
Rainfall 1.27 in
Snow Depth Not available.
7:11 AM 5:20 PM
Waxing Crescent, 5% visible
METAR LDRI 101130Z 23010KT 180V270 9999 FEW020 BKN037 10/08 Q0994

10-Day Weather Forecast

Almanac

Astronomy

Feb. 10, 2016 Rise Set
Actual Time
Civil Twilight
Nautical Twilight
Astronomical Twilight
Moon
Length of Visible Light
Length of Day
Tomorrow will be .
, % of the Moon is Illuminated

Today's Extremes

Country Highs Country Lows

Community

WunderPhotos

Upload Photos

1,891,830 photos uploaded!

WunderBlog® & News

Nearby

Air Quality

  Air Quality AQ Index Pollutant
Not available.

Snow Depth

Station Depth Elevation

Earthquake Activity

City Distance Mag. Time & Date
Minimum magnitude displayed is 2.5.

Coastal Water Temperatures

Place Temperature

Stations

Nearby Weather Stations

Station Location Temp. Windchill Dew Point Humidity Wind Precip. Elev Updated Type